Sunol, CA (94586)

6:26 AM PDT on September 16, 2014 (GMT -0700)
Golden eagle estate | Change Station
CLOSE
Current Station
Personal Weather Station
Location: Pleasanton, CA
Elevation: 531 ft
Nearby Weather Stations

Elev 531 ft 37.64 °N, 121.90 °W | Updated 42 seconds ago

Clear
Clear
54.1 °F
Feels Like 54.1 °F
N
0.0
Wind Variable Wind from North
Gusts 0.0 mph

Today
High -- | Low -- °F
--% Chance of Precip.
Yesterday
High -- | Low -- °F
Precip. -- in
6:50 AM 7:13 PM
Last Quarter, 45% visible
Pressure 29.91 in
Visibility 10.0 miles
Clouds Clear
Dew Point 53 °F
Humidity 97%
Rainfall 0.00 in
Snow Depth 0 in , 1 in , 0 in
UV 0 out of 12
Pollen 5.20 out of 12
PM2.5 Good
Flu Activity Not available.
METAR KLVK 161253Z AUTO 00000KT 10SM CLR 14/12 A2992 RMK AO2 SLP127 T01440117

More Conditions Fewer Conditions

Pressure 29.91 in
Visibility 10.0 miles
Clouds Clear
Dew Point 53 °F
Humidity 97%
Rainfall 0.00 in
Snow Depth 0 in , 1 in , 0 in
UV 0 out of 12
Pollen 5.20 out of 12
PM2.5 Good
Flu Activity Not available.
METAR KLVK 161253Z AUTO 00000KT 10SM CLR 14/12 A2992 RMK AO2 SLP127 T01440117

More Conditions Fewer Conditions

10-Day Weather Forecast

Almanac

Astronomy

Sep. 16, 2014 Rise Set
Actual Time 6:50 AM PDT 7:13 PM PDT
Civil Twilight 6:24 AM PDT 7:39 PM PDT
Nautical Twilight 5:53 AM PDT 8:10 PM PDT
Astronomical Twilight 5:21 AM PDT 8:41 PM PDT
Moon 12:09 AM PDT 2:36 PM PDT
Length of Visible Light 13h 15m
Length of Day
12h 23m
Tomorrow will be 2m 23s shorter.
Last Quarter, 45% of the Moon is Illuminated
Today
Last Quarter
Sep 24
New
Oct 1
First Quarter
Oct 8
Full
Oct 15
Last Quarter

Today's Extremes

State Highs State Lows

Community

WunderPhotos

Upload Photos

1,753,759 photos uploaded!

Nearby

Air Quality

  Air Quality AQ Index Pollutant
Yesterday Good
PM2.5
Yesterday Good
OZONE
Current Good
PM2.5
Tuesday Good
OZONE
Wednesday Good
OZONE
Thursday Good
OZONE
Friday Good
OZONE
Saturday Moderate
OZONE

Snow Depth

Station Depth Elevation
Monitor Pass 0 in 8350 ft
Spratt Creek 1 in 6200 ft
Rubicon #2 0 in 7500 ft
Leavitt Meadows 1 in 7200 ft
Forestdale Creek 0 in 8029 ft

Earthquake Activity

City Distance Mag. Time & Date
Cobb, California 97 miles 2.7 11:07 AM PDT
2014-09-14
Minimum magnitude displayed is 2.5.

Coastal Water Temperatures

Place Temperature
No Stations Reporting

Nearby Weather Stations